sensor_id;sensor_type;location;lat;lon;timestamp;temperature;humidity
38118;DHT22;23928;47.562;7.508;2023-03-08T00:00:13;2.70;99.90
38118;DHT22;23928;47.562;7.508;2023-03-08T00:02:39;2.70;99.90
38118;DHT22;23928;47.562;7.508;2023-03-08T00:05:05;2.80;99.90
38118;DHT22;23928;47.562;7.508;2023-03-08T00:07:31;2.80;99.90
38118;DHT22;23928;47.562;7.508;2023-03-08T00:09:57;2.70;99.90
38118;DHT22;23928;47.562;7.508;2023-03-08T00:12:23;2.70;99.90
38118;DHT22;23928;47.562;7.508;2023-03-08T00:14:49;2.70;99.90
38118;DHT22;23928;47.562;7.508;2023-03-08T00:17:16;2.80;99.90
38118;DHT22;23928;47.562;7.508;2023-03-08T00:19:42;2.80;99.90
38118;DHT22;23928;47.562;7.508;2023-03-08T00:22:08;2.80;99.90
38118;DHT22;23928;47.562;7.508;2023-03-08T00:24:33;2.80;99.90
38118;DHT22;23928;47.562;7.508;2023-03-08T00:26:59;2.90;99.90
38118;DHT22;23928;47.562;7.508;2023-03-08T00:29:24;2.80;99.90
38118;DHT22;23928;47.562;7.508;2023-03-08T00:31:50;2.80;99.90
38118;DHT22;23928;47.562;7.508;2023-03-08T00:34:16;2.80;99.90
38118;DHT22;23928;47.562;7.508;2023-03-08T00:36:42;2.80;99.90
38118;DHT22;23928;47.562;7.508;2023-03-08T00:39:09;2.80;99.90
38118;DHT22;23928;47.562;7.508;2023-03-08T00:41:35;2.70;99.90
38118;DHT22;23928;47.562;7.508;2023-03-08T00:44:00;2.70;99.90
38118;DHT22;23928;47.562;7.508;2023-03-08T00:46:26;2.60;99.90
38118;DHT22;23928;47.562;7.508;2023-03-08T00:48:52;2.50;99.90
38118;DHT22;23928;47.562;7.508;2023-03-08T00:51:18;2.60;99.90
38118;DHT22;23928;47.562;7.508;2023-03-08T00:53:45;2.50;99.90
38118;DHT22;23928;47.562;7.508;2023-03-08T00:56:11;2.50;99.90
38118;DHT22;23928;47.562;7.508;2023-03-08T00:58:38;2.40;99.90
38118;DHT22;23928;47.562;7.508;2023-03-08T01:01:05;2.40;99.90
38118;DHT22;23928;47.562;7.508;2023-03-08T01:03:31;2.40;99.90
38118;DHT22;23928;47.562;7.508;2023-03-08T01:05:58;2.40;99.90
38118;DHT22;23928;47.562;7.508;2023-03-08T01:08:25;2.40;99.90
38118;DHT22;23928;47.562;7.508;2023-03-08T01:10:56;2.50;99.90
38118;DHT22;23928;47.562;7.508;2023-03-08T01:13:27;2.50;99.90
38118;DHT22;23928;47.562;7.508;2023-03-08T01:15:53;2.50;99.90
38118;DHT22;23928;47.562;7.508;2023-03-08T01:18:18;2.60;99.90
38118;DHT22;23928;47.562;7.508;2023-03-08T01:20:44;2.30;99.90
38118;DHT22;23928;47.562;7.508;2023-03-08T01:23:18;2.40;99.90
38118;DHT22;23928;47.562;7.508;2023-03-08T01:25:44;2.40;99.90
38118;DHT22;23928;47.562;7.508;2023-03-08T01:28:09;2.30;99.90
38118;DHT22;23928;47.562;7.508;2023-03-08T01:30:35;2.20;99.90
38118;DHT22;23928;47.562;7.508;2023-03-08T01:33:01;2.20;99.90
38118;DHT22;23928;47.562;7.508;2023-03-08T01:35:26;2.20;99.90
38118;DHT22;23928;47.562;7.508;2023-03-08T01:37:52;2.20;99.90
38118;DHT22;23928;47.562;7.508;2023-03-08T01:40:18;2.20;99.90
38118;DHT22;23928;47.562;7.508;2023-03-08T01:42:43;2.30;99.90
38118;DHT22;23928;47.562;7.508;2023-03-08T01:48:13;2.10;99.90
38118;DHT22;23928;47.562;7.508;2023-03-08T01:50:39;2.10;99.90
38118;DHT22;23928;47.562;7.508;2023-03-08T01:53:05;2.10;99.90
38118;DHT22;23928;47.562;7.508;2023-03-08T01:55:31;2.20;99.90
38118;DHT22;23928;47.562;7.508;2023-03-08T01:57:57;2.20;99.90
38118;DHT22;23928;47.562;7.508;2023-03-08T02:00:24;2.30;99.90
38118;DHT22;23928;47.562;7.508;2023-03-08T02:03:14;2.20;99.90
38118;DHT22;23928;47.562;7.508;2023-03-08T02:05:41;2.10;99.90
38118;DHT22;23928;47.562;7.508;2023-03-08T02:08:08;2.10;99.90
38118;DHT22;23928;47.562;7.508;2023-03-08T02:10:35;2.10;99.90
38118;DHT22;23928;47.562;7.508;2023-03-08T02:13:02;1.90;99.90
38118;DHT22;23928;47.562;7.508;2023-03-08T02:15:28;1.90;99.90
38118;DHT22;23928;47.562;7.508;2023-03-08T02:17:54;2.00;99.90
38118;DHT22;23928;47.562;7.508;2023-03-08T02:20:31;2.00;99.90
38118;DHT22;23928;47.562;7.508;2023-03-08T02:23:16;2.00;99.90
38118;DHT22;23928;47.562;7.508;2023-03-08T02:26:03;2.00;99.90
38118;DHT22;23928;47.562;7.508;2023-03-08T02:28:29;2.10;99.90
38118;DHT22;23928;47.562;7.508;2023-03-08T02:30:56;2.10;99.90
38118;DHT22;23928;47.562;7.508;2023-03-08T02:33:22;2.00;99.90
38118;DHT22;23928;47.562;7.508;2023-03-08T02:35:48;2.00;99.90
38118;DHT22;23928;47.562;7.508;2023-03-08T02:38:16;2.00;99.90
38118;DHT22;23928;47.562;7.508;2023-03-08T02:40:42;2.10;99.90
38118;DHT22;23928;47.562;7.508;2023-03-08T02:43:08;2.10;99.90
38118;DHT22;23928;47.562;7.508;2023-03-08T02:45:34;2.20;99.90
38118;DHT22;23928;47.562;7.508;2023-03-08T02:48:01;2.20;99.90
38118;DHT22;23928;47.562;7.508;2023-03-08T02:50:27;2.30;99.90
38118;DHT22;23928;47.562;7.508;2023-03-08T02:52:52;2.20;99.90
38118;DHT22;23928;47.562;7.508;2023-03-08T02:55:18;2.20;99.90
38118;DHT22;23928;47.562;7.508;2023-03-08T02:57:43;2.20;99.90
38118;DHT22;23928;47.562;7.508;2023-03-08T03:00:10;2.20;99.90
38118;DHT22;23928;47.562;7.508;2023-03-08T03:02:35;2.30;99.90
38118;DHT22;23928;47.562;7.508;2023-03-08T03:05:03;2.40;99.90
38118;DHT22;23928;47.562;7.508;2023-03-08T03:07:28;2.40;99.90
38118;DHT22;23928;47.562;7.508;2023-03-08T03:09:54;2.40;99.90
38118;DHT22;23928;47.562;7.508;2023-03-08T03:12:19;2.40;99.90
38118;DHT22;23928;47.562;7.508;2023-03-08T03:14:45;2.40;99.90
38118;DHT22;23928;47.562;7.508;2023-03-08T03:17:11;2.40;99.90
38118;DHT22;23928;47.562;7.508;2023-03-08T03:19:37;2.40;99.90
38118;DHT22;23928;47.562;7.508;2023-03-08T03:22:03;2.50;99.90
38118;DHT22;23928;47.562;7.508;2023-03-08T03:24:29;2.50;99.90
38118;DHT22;23928;47.562;7.508;2023-03-08T03:26:54;2.50;99.90
38118;DHT22;23928;47.562;7.508;2023-03-08T03:29:20;2.60;99.90
38118;DHT22;23928;47.562;7.508;2023-03-08T03:31:46;2.60;99.90
38118;DHT22;23928;47.562;7.508;2023-03-08T03:34:13;2.70;99.90
38118;DHT22;23928;47.562;7.508;2023-03-08T03:36:38;2.70;99.90
38118;DHT22;23928;47.562;7.508;2023-03-08T03:39:05;2.70;99.90
38118;DHT22;23928;47.562;7.508;2023-03-08T03:41:30;2.80;99.90
38118;DHT22;23928;47.562;7.508;2023-03-08T03:43:57;2.80;99.90
38118;DHT22;23928;47.562;7.508;2023-03-08T03:46:23;2.90;99.90
38118;DHT22;23928;47.562;7.508;2023-03-08T03:48:49;2.90;99.90
38118;DHT22;23928;47.562;7.508;2023-03-08T03:51:16;3.00;99.90
38118;DHT22;23928;47.562;7.508;2023-03-08T03:53:43;3.00;99.90
38118;DHT22;23928;47.562;7.508;2023-03-08T03:56:22;3.00;99.90
38118;DHT22;23928;47.562;7.508;2023-03-08T03:58:48;3.00;99.90
38118;DHT22;23928;47.562;7.508;2023-03-08T04:01:26;3.10;99.90
38118;DHT22;23928;47.562;7.508;2023-03-08T04:03:53;3.10;99.90
38118;DHT22;23928;47.562;7.508;2023-03-08T04:06:21;3.10;99.90
38118;DHT22;23928;47.562;7.508;2023-03-08T04:08:48;3.10;99.90
38118;DHT22;23928;47.562;7.508;2023-03-08T04:11:16;3.00;99.90
38118;DHT22;23928;47.562;7.508;2023-03-08T04:13:42;3.00;99.90
38118;DHT22;23928;47.562;7.508;2023-03-08T04:16:19;2.90;99.90
38118;DHT22;23928;47.562;7.508;2023-03-08T04:18:45;3.00;99.90
38118;DHT22;23928;47.562;7.508;2023-03-08T04:21:12;2.90;99.90
38118;DHT22;23928;47.562;7.508;2023-03-08T04:23:37;2.90;99.90
38118;DHT22;23928;47.562;7.508;2023-03-08T04:26:04;2.90;99.90
38118;DHT22;23928;47.562;7.508;2023-03-08T04:28:30;2.80;99.90
38118;DHT22;23928;47.562;7.508;2023-03-08T04:30:58;2.90;99.90
38118;DHT22;23928;47.562;7.508;2023-03-08T04:33:24;3.10;99.90
38118;DHT22;23928;47.562;7.508;2023-03-08T04:35:50;3.00;99.90
38118;DHT22;23928;47.562;7.508;2023-03-08T04:38:16;2.90;99.90
38118;DHT22;23928;47.562;7.508;2023-03-08T04:40:51;2.90;99.90
38118;DHT22;23928;47.562;7.508;2023-03-08T04:43:40;2.90;99.90
38118;DHT22;23928;47.562;7.508;2023-03-08T04:46:06;3.00;99.90
38118;DHT22;23928;47.562;7.508;2023-03-08T04:48:32;3.00;99.90
38118;DHT22;23928;47.562;7.508;2023-03-08T04:51:00;2.90;99.90
38118;DHT22;23928;47.562;7.508;2023-03-08T04:53:27;3.00;99.90
38118;DHT22;23928;47.562;7.508;2023-03-08T04:55:53;3.00;99.90
38118;DHT22;23928;47.562;7.508;2023-03-08T04:58:20;3.00;99.90
38118;DHT22;23928;47.562;7.508;2023-03-08T05:00:45;3.00;99.90
38118;DHT22;23928;47.562;7.508;2023-03-08T05:03:11;2.90;99.90
38118;DHT22;23928;47.562;7.508;2023-03-08T05:05:47;2.90;99.90
38118;DHT22;23928;47.562;7.508;2023-03-08T05:08:13;3.00;99.90
38118;DHT22;23928;47.562;7.508;2023-03-08T05:10:39;3.10;99.90
38118;DHT22;23928;47.562;7.508;2023-03-08T05:13:04;3.00;99.90
38118;DHT22;23928;47.562;7.508;2023-03-08T05:15:30;3.00;99.90
38118;DHT22;23928;47.562;7.508;2023-03-08T05:17:56;3.00;99.90
38118;DHT22;23928;47.562;7.508;2023-03-08T05:20:21;2.90;99.90
38118;DHT22;23928;47.562;7.508;2023-03-08T05:22:47;2.80;99.90
38118;DHT22;23928;47.562;7.508;2023-03-08T05:25:12;2.80;99.90
38118;DHT22;23928;47.562;7.508;2023-03-08T05:27:38;2.90;99.90
38118;DHT22;23928;47.562;7.508;2023-03-08T05:30:04;3.00;99.90
38118;DHT22;23928;47.562;7.508;2023-03-08T05:32:30;3.00;99.90
38118;DHT22;23928;47.562;7.508;2023-03-08T05:34:56;3.10;99.90
38118;DHT22;23928;47.562;7.508;2023-03-08T05:37:21;3.10;99.90
38118;DHT22;23928;47.562;7.508;2023-03-08T05:39:50;3.10;99.90
38118;DHT22;23928;47.562;7.508;2023-03-08T05:42:16;2.90;99.90
38118;DHT22;23928;47.562;7.508;2023-03-08T05:44:42;2.90;99.90
38118;DHT22;23928;47.562;7.508;2023-03-08T05:47:08;2.90;99.90
38118;DHT22;23928;47.562;7.508;2023-03-08T05:49:33;2.90;99.90
38118;DHT22;23928;47.562;7.508;2023-03-08T05:51:59;3.10;99.90
38118;DHT22;23928;47.562;7.508;2023-03-08T05:54:24;3.20;99.90
38118;DHT22;23928;47.562;7.508;2023-03-08T05:56:50;3.20;99.90
38118;DHT22;23928;47.562;7.508;2023-03-08T05:59:16;3.20;99.90
38118;DHT22;23928;47.562;7.508;2023-03-08T06:01:42;3.20;99.90
38118;DHT22;23928;47.562;7.508;2023-03-08T06:04:08;3.20;99.90
38118;DHT22;23928;47.562;7.508;2023-03-08T06:06:33;3.10;99.90
38118;DHT22;23928;47.562;7.508;2023-03-08T06:08:59;3.10;99.90
38118;DHT22;23928;47.562;7.508;2023-03-08T06:11:24;3.10;99.90
38118;DHT22;23928;47.562;7.508;2023-03-08T06:13:50;3.20;99.90
38118;DHT22;23928;47.562;7.508;2023-03-08T06:16:16;3.20;99.90
38118;DHT22;23928;47.562;7.508;2023-03-08T06:18:42;3.30;99.90
38118;DHT22;23928;47.562;7.508;2023-03-08T06:21:09;3.40;99.90
38118;DHT22;23928;47.562;7.508;2023-03-08T06:23:36;3.40;99.90
38118;DHT22;23928;47.562;7.508;2023-03-08T06:26:03;3.40;99.90
38118;DHT22;23928;47.562;7.508;2023-03-08T06:28:30;3.40;99.90
38118;DHT22;23928;47.562;7.508;2023-03-08T06:30:56;3.30;99.90
38118;DHT22;23928;47.562;7.508;2023-03-08T06:33:27;3.40;99.90
38118;DHT22;23928;47.562;7.508;2023-03-08T06:38:28;3.50;99.90
38118;DHT22;23928;47.562;7.508;2023-03-08T06:40:54;3.50;99.90
38118;DHT22;23928;47.562;7.508;2023-03-08T06:43:20;3.50;99.90
38118;DHT22;23928;47.562;7.508;2023-03-08T06:45:45;3.50;99.90
38118;DHT22;23928;47.562;7.508;2023-03-08T06:48:12;3.50;99.90
38118;DHT22;23928;47.562;7.508;2023-03-08T06:50:37;3.50;99.90
38118;DHT22;23928;47.562;7.508;2023-03-08T06:53:03;3.60;99.90
38118;DHT22;23928;47.562;7.508;2023-03-08T06:55:28;3.80;99.90
38118;DHT22;23928;47.562;7.508;2023-03-08T06:57:54;3.70;99.90
38118;DHT22;23928;47.562;7.508;2023-03-08T07:00:20;3.70;99.90
38118;DHT22;23928;47.562;7.508;2023-03-08T07:02:46;3.60;99.90
38118;DHT22;23928;47.562;7.508;2023-03-08T07:05:13;3.60;99.90
38118;DHT22;23928;47.562;7.508;2023-03-08T07:07:39;3.60;99.90
38118;DHT22;23928;47.562;7.508;2023-03-08T07:10:05;3.70;99.90
38118;DHT22;23928;47.562;7.508;2023-03-08T07:12:31;3.70;99.90
38118;DHT22;23928;47.562;7.508;2023-03-08T07:14:57;3.70;99.90
38118;DHT22;23928;47.562;7.508;2023-03-08T07:17:23;3.70;99.90
38118;DHT22;23928;47.562;7.508;2023-03-08T07:19:49;3.80;99.90
38118;DHT22;23928;47.562;7.508;2023-03-08T07:22:14;3.80;99.90
38118;DHT22;23928;47.562;7.508;2023-03-08T07:24:40;3.90;99.90
38118;DHT22;23928;47.562;7.508;2023-03-08T07:27:06;3.90;99.90
38118;DHT22;23928;47.562;7.508;2023-03-08T07:29:31;3.90;99.90
38118;DHT22;23928;47.562;7.508;2023-03-08T07:31:57;3.70;99.90
38118;DHT22;23928;47.562;7.508;2023-03-08T07:34:22;3.70;99.90
38118;DHT22;23928;47.562;7.508;2023-03-08T07:36:48;3.70;99.90
38118;DHT22;23928;47.562;7.508;2023-03-08T07:39:15;3.70;99.90
38118;DHT22;23928;47.562;7.508;2023-03-08T07:41:41;3.70;99.90
38118;DHT22;23928;47.562;7.508;2023-03-08T07:44:07;3.80;99.90
38118;DHT22;23928;47.562;7.508;2023-03-08T07:46:33;3.80;99.90
38118;DHT22;23928;47.562;7.508;2023-03-08T07:48:58;3.80;99.90
38118;DHT22;23928;47.562;7.508;2023-03-08T07:51:24;3.80;99.90
38118;DHT22;23928;47.562;7.508;2023-03-08T07:53:51;3.90;99.90
38118;DHT22;23928;47.562;7.508;2023-03-08T07:56:17;4.00;99.90
38118;DHT22;23928;47.562;7.508;2023-03-08T07:58:43;4.20;99.90
38118;DHT22;23928;47.562;7.508;2023-03-08T08:01:12;4.40;99.90
38118;DHT22;23928;47.562;7.508;2023-03-08T08:03:38;4.40;99.90
38118;DHT22;23928;47.562;7.508;2023-03-08T08:06:05;4.50;99.90
38118;DHT22;23928;47.562;7.508;2023-03-08T08:08:31;4.60;99.90
38118;DHT22;23928;47.562;7.508;2023-03-08T08:10:57;4.90;99.90
38118;DHT22;23928;47.562;7.508;2023-03-08T08:13:23;4.90;99.90
38118;DHT22;23928;47.562;7.508;2023-03-08T08:15:59;4.80;99.90
38118;DHT22;23928;47.562;7.508;2023-03-08T08:18:26;4.80;99.90
38118;DHT22;23928;47.562;7.508;2023-03-08T08:21:03;4.90;99.90
38118;DHT22;23928;47.562;7.508;2023-03-08T08:23:30;5.10;99.90
38118;DHT22;23928;47.562;7.508;2023-03-08T08:25:56;5.10;99.90
38118;DHT22;23928;47.562;7.508;2023-03-08T08:28:23;5.30;99.90
38118;DHT22;23928;47.562;7.508;2023-03-08T08:31:00;5.30;99.90
38118;DHT22;23928;47.562;7.508;2023-03-08T08:33:27;5.30;99.90
38118;DHT22;23928;47.562;7.508;2023-03-08T08:35:53;5.40;99.90
38118;DHT22;23928;47.562;7.508;2023-03-08T08:38:19;5.70;99.90
38118;DHT22;23928;47.562;7.508;2023-03-08T08:40:45;6.00;99.90
38118;DHT22;23928;47.562;7.508;2023-03-08T08:43:11;5.90;99.90
38118;DHT22;23928;47.562;7.508;2023-03-08T08:45:44;5.90;99.90
38118;DHT22;23928;47.562;7.508;2023-03-08T08:48:11;5.80;99.90
38118;DHT22;23928;47.562;7.508;2023-03-08T08:50:41;5.80;99.90
38118;DHT22;23928;47.562;7.508;2023-03-08T08:53:07;5.80;99.90
38118;DHT22;23928;47.562;7.508;2023-03-08T08:55:33;5.90;99.90
38118;DHT22;23928;47.562;7.508;2023-03-08T08:57:59;5.90;99.90
38118;DHT22;23928;47.562;7.508;2023-03-08T09:00:25;6.10;99.90
38118;DHT22;23928;47.562;7.508;2023-03-08T09:02:50;6.20;99.90
38118;DHT22;23928;47.562;7.508;2023-03-08T09:05:16;6.20;99.90
38118;DHT22;23928;47.562;7.508;2023-03-08T09:07:42;6.20;99.90
38118;DHT22;23928;47.562;7.508;2023-03-08T09:10:08;6.20;99.90
38118;DHT22;23928;47.562;7.508;2023-03-08T09:12:34;6.30;99.90
38118;DHT22;23928;47.562;7.508;2023-03-08T09:15:00;6.40;99.90
38118;DHT22;23928;47.562;7.508;2023-03-08T09:17:26;6.50;99.90
38118;DHT22;23928;47.562;7.508;2023-03-08T09:19:51;6.60;99.90
38118;DHT22;23928;47.562;7.508;2023-03-08T09:22:17;6.60;99.90
38118;DHT22;23928;47.562;7.508;2023-03-08T09:24:43;6.70;99.90
38118;DHT22;23928;47.562;7.508;2023-03-08T09:27:10;6.80;99.90
38118;DHT22;23928;47.562;7.508;2023-03-08T09:29:36;6.80;99.90
38118;DHT22;23928;47.562;7.508;2023-03-08T09:32:03;6.90;99.90
38118;DHT22;23928;47.562;7.508;2023-03-08T09:34:29;6.90;99.90
38118;DHT22;23928;47.562;7.508;2023-03-08T09:36:55;7.00;99.90
38118;DHT22;23928;47.562;7.508;2023-03-08T09:39:20;7.10;99.90
38118;DHT22;23928;47.562;7.508;2023-03-08T09:41:57;7.10;99.90
38118;DHT22;23928;47.562;7.508;2023-03-08T09:49:51;7.00;99.90
38118;DHT22;23928;47.562;7.508;2023-03-08T09:52:24;7.00;99.90
38118;DHT22;23928;47.562;7.508;2023-03-08T09:54:52;7.10;99.90
38118;DHT22;23928;47.562;7.508;2023-03-08T09:57:31;7.20;99.90
38118;DHT22;23928;47.562;7.508;2023-03-08T10:00:01;7.20;99.90
38118;DHT22;23928;47.562;7.508;2023-03-08T10:02:35;7.40;99.90
38118;DHT22;23928;47.562;7.508;2023-03-08T10:05:05;8.10;99.90
38118;DHT22;23928;47.562;7.508;2023-03-08T10:10:16;9.80;99.90
38118;DHT22;23928;47.562;7.508;2023-03-08T10:13:06;10.20;99.90
38118;DHT22;23928;47.562;7.508;2023-03-08T10:15:40;10.60;99.90
38118;DHT22;23928;47.562;7.508;2023-03-08T10:21:05;10.80;99.90
38118;DHT22;23928;47.562;7.508;2023-03-08T10:23:35;11.10;99.90
38118;DHT22;23928;47.562;7.508;2023-03-08T10:26:07;11.40;99.90
38118;DHT22;23928;47.562;7.508;2023-03-08T10:28:33;11.50;99.90
38118;DHT22;23928;47.562;7.508;2023-03-08T10:31:01;11.60;99.90
38118;DHT22;23928;47.562;7.508;2023-03-08T10:33:34;11.60;99.90
38118;DHT22;23928;47.562;7.508;2023-03-08T10:36:23;11.60;99.90
38118;DHT22;23928;47.562;7.508;2023-03-08T10:38:58;11.60;99.90
38118;DHT22;23928;47.562;7.508;2023-03-08T10:41:24;11.70;99.90
38118;DHT22;23928;47.562;7.508;2023-03-08T10:43:53;11.70;99.90
38118;DHT22;23928;47.562;7.508;2023-03-08T10:46:24;11.80;99.90
38118;DHT22;23928;47.562;7.508;2023-03-08T10:48:50;11.70;99.90
38118;DHT22;23928;47.562;7.508;2023-03-08T10:51:25;11.70;99.90
38118;DHT22;23928;47.562;7.508;2023-03-08T10:53:56;11.80;99.90
38118;DHT22;23928;47.562;7.508;2023-03-08T10:56:38;11.80;99.90
38118;DHT22;23928;47.562;7.508;2023-03-08T10:59:20;11.80;99.90
38118;DHT22;23928;47.562;7.508;2023-03-08T11:01:54;11.80;99.90
38118;DHT22;23928;47.562;7.508;2023-03-08T11:04:23;11.90;99.90
38118;DHT22;23928;47.562;7.508;2023-03-08T11:06:49;12.00;99.90
38118;DHT22;23928;47.562;7.508;2023-03-08T11:09:29;12.10;99.90
38118;DHT22;23928;47.562;7.508;2023-03-08T11:11:59;12.30;99.90
38118;DHT22;23928;47.562;7.508;2023-03-08T11:14:26;12.50;99.90
38118;DHT22;23928;47.562;7.508;2023-03-08T11:22:27;13.00;99.90
38118;DHT22;23928;47.562;7.508;2023-03-08T11:25:30;13.30;99.90
38118;DHT22;23928;47.562;7.508;2023-03-08T11:30:56;13.60;99.90
38118;DHT22;23928;47.562;7.508;2023-03-08T11:33:43;13.60;99.90
38118;DHT22;23928;47.562;7.508;2023-03-08T11:38:51;13.90;99.90
38118;DHT22;23928;47.562;7.508;2023-03-08T11:41:29;14.10;99.90
38118;DHT22;23928;47.562;7.508;2023-03-08T11:44:20;14.30;99.90
38118;DHT22;23928;47.562;7.508;2023-03-08T11:58:31;14.40;99.90
38118;DHT22;23928;47.562;7.508;2023-03-08T12:01:02;14.30;99.90
38118;DHT22;23928;47.562;7.508;2023-03-08T12:03:40;14.40;99.90
38118;DHT22;23928;47.562;7.508;2023-03-08T12:06:29;14.40;99.90
38118;DHT22;23928;47.562;7.508;2023-03-08T12:14:35;14.60;99.90
38118;DHT22;23928;47.562;7.508;2023-03-08T12:17:32;14.60;99.90
38118;DHT22;23928;47.562;7.508;2023-03-08T12:19:58;14.60;99.90
38118;DHT22;23928;47.562;7.508;2023-03-08T12:27:43;14.50;99.90
38118;DHT22;23928;47.562;7.508;2023-03-08T12:32:39;14.70;99.90
38118;DHT22;23928;47.562;7.508;2023-03-08T12:40:39;14.80;99.90
38118;DHT22;23928;47.562;7.508;2023-03-08T12:43:56;14.90;99.90
38118;DHT22;23928;47.562;7.508;2023-03-08T12:46:10;15.00;99.90
38118;DHT22;23928;47.562;7.508;2023-03-08T12:48:53;15.00;99.90
38118;DHT22;23928;47.562;7.508;2023-03-08T12:51:23;14.90;99.90
38118;DHT22;23928;47.562;7.508;2023-03-08T12:56:51;14.90;99.90
38118;DHT22;23928;47.562;7.508;2023-03-08T13:01:45;14.90;99.90
38118;DHT22;23928;47.562;7.508;2023-03-08T13:04:36;14.90;99.90
38118;DHT22;23928;47.562;7.508;2023-03-08T13:14:45;14.90;99.90
38118;DHT22;23928;47.562;7.508;2023-03-08T13:19:56;15.00;99.90
38118;DHT22;23928;47.562;7.508;2023-03-08T13:22:28;15.00;99.90
38118;DHT22;23928;47.562;7.508;2023-03-08T13:25:04;15.10;99.90
38118;DHT22;23928;47.562;7.508;2023-03-08T13:32:59;15.20;99.90
38118;DHT22;23928;47.562;7.508;2023-03-08T13:35:25;15.20;99.90
38118;DHT22;23928;47.562;7.508;2023-03-08T13:37:53;15.20;99.90
38118;DHT22;23928;47.562;7.508;2023-03-08T13:40:20;15.20;99.90
38118;DHT22;23928;47.562;7.508;2023-03-08T13:42:58;15.10;99.90
38118;DHT22;23928;47.562;7.508;2023-03-08T13:45:25;15.00;99.90
38118;DHT22;23928;47.562;7.508;2023-03-08T13:47:51;14.90;99.90
38118;DHT22;23928;47.562;7.508;2023-03-08T13:50:32;15.00;99.90
38118;DHT22;23928;47.562;7.508;2023-03-08T13:53:00;15.10;99.90
38118;DHT22;23928;47.562;7.508;2023-03-08T13:55:32;15.00;99.90
38118;DHT22;23928;47.562;7.508;2023-03-08T13:57:58;15.00;99.90
38118;DHT22;23928;47.562;7.508;2023-03-08T14:00:28;14.90;99.90
38118;DHT22;23928;47.562;7.508;2023-03-08T14:02:54;14.90;99.90
38118;DHT22;23928;47.562;7.508;2023-03-08T14:05:24;14.90;99.90
38118;DHT22;23928;47.562;7.508;2023-03-08T14:08:21;14.80;99.90
38118;DHT22;23928;47.562;7.508;2023-03-08T14:10:56;14.80;99.90
38118;DHT22;23928;47.562;7.508;2023-03-08T14:13:35;14.70;99.90
38118;DHT22;23928;47.562;7.508;2023-03-08T14:16:06;14.70;99.90
38118;DHT22;23928;47.562;7.508;2023-03-08T14:18:37;14.80;99.90
38118;DHT22;23928;47.562;7.508;2023-03-08T14:21:13;14.90;99.90
38118;DHT22;23928;47.562;7.508;2023-03-08T14:23:41;14.80;99.90
38118;DHT22;23928;47.562;7.508;2023-03-08T14:28:48;14.90;99.90
38118;DHT22;23928;47.562;7.508;2023-03-08T14:31:24;14.90;99.90
38118;DHT22;23928;47.562;7.508;2023-03-08T14:34:02;14.90;99.90
38118;DHT22;23928;47.562;7.508;2023-03-08T14:36:30;14.80;99.90
38118;DHT22;23928;47.562;7.508;2023-03-08T14:38:58;14.70;99.90
38118;DHT22;23928;47.562;7.508;2023-03-08T14:41:34;14.50;99.90
38118;DHT22;23928;47.562;7.508;2023-03-08T14:44:01;14.40;99.90
38118;DHT22;23928;47.562;7.508;2023-03-08T14:46:28;14.20;99.90
38118;DHT22;23928;47.562;7.508;2023-03-08T14:48:59;14.10;99.90
38118;DHT22;23928;47.562;7.508;2023-03-08T14:51:40;14.00;99.90
38118;DHT22;23928;47.562;7.508;2023-03-08T14:54:33;13.80;99.90
38118;DHT22;23928;47.562;7.508;2023-03-08T14:57:19;13.80;99.90
38118;DHT22;23928;47.562;7.508;2023-03-08T14:59:46;13.70;99.90
38118;DHT22;23928;47.562;7.508;2023-03-08T15:02:13;13.60;99.90
38118;DHT22;23928;47.562;7.508;2023-03-08T15:04:39;13.40;99.90
38118;DHT22;23928;47.562;7.508;2023-03-08T15:07:05;13.40;99.90
38118;DHT22;23928;47.562;7.508;2023-03-08T15:09:31;13.40;99.90
38118;DHT22;23928;47.562;7.508;2023-03-08T15:11:57;13.30;99.90
38118;DHT22;23928;47.562;7.508;2023-03-08T15:14:26;13.10;99.90
38118;DHT22;23928;47.562;7.508;2023-03-08T15:16:53;13.00;99.90
38118;DHT22;23928;47.562;7.508;2023-03-08T15:19:22;12.90;99.90
38118;DHT22;23928;47.562;7.508;2023-03-08T15:21:48;12.90;99.90
38118;DHT22;23928;47.562;7.508;2023-03-08T15:24:16;12.80;99.90
38118;DHT22;23928;47.562;7.508;2023-03-08T15:26:43;12.80;99.90
38118;DHT22;23928;47.562;7.508;2023-03-08T15:31:48;12.70;99.90
38118;DHT22;23928;47.562;7.508;2023-03-08T15:34:13;12.60;99.90
38118;DHT22;23928;47.562;7.508;2023-03-08T15:36:39;12.40;99.90
38118;DHT22;23928;47.562;7.508;2023-03-08T15:39:04;12.30;99.90
38118;DHT22;23928;47.562;7.508;2023-03-08T15:41:30;12.30;99.90
38118;DHT22;23928;47.562;7.508;2023-03-08T15:43:55;12.20;99.90
38118;DHT22;23928;47.562;7.508;2023-03-08T15:46:21;12.20;99.90
38118;DHT22;23928;47.562;7.508;2023-03-08T15:48:46;12.20;99.90
38118;DHT22;23928;47.562;7.508;2023-03-08T15:51:16;12.20;99.90
38118;DHT22;23928;47.562;7.508;2023-03-08T15:53:43;12.10;99.90
38118;DHT22;23928;47.562;7.508;2023-03-08T15:56:09;12.10;99.90
38118;DHT22;23928;47.562;7.508;2023-03-08T15:58:34;11.90;99.90
38118;DHT22;23928;47.562;7.508;2023-03-08T16:01:00;11.80;99.90
38118;DHT22;23928;47.562;7.508;2023-03-08T16:03:25;11.60;99.90
38118;DHT22;23928;47.562;7.508;2023-03-08T16:05:53;11.60;99.90
38118;DHT22;23928;47.562;7.508;2023-03-08T16:08:19;11.50;99.90
38118;DHT22;23928;47.562;7.508;2023-03-08T16:10:49;11.40;99.90
38118;DHT22;23928;47.562;7.508;2023-03-08T16:13:15;11.30;99.90
38118;DHT22;23928;47.562;7.508;2023-03-08T16:15:43;11.20;99.90
38118;DHT22;23928;47.562;7.508;2023-03-08T16:18:09;11.20;99.90
38118;DHT22;23928;47.562;7.508;2023-03-08T16:20:35;11.10;99.90
38118;DHT22;23928;47.562;7.508;2023-03-08T16:23:03;11.00;99.90
38118;DHT22;23928;47.562;7.508;2023-03-08T16:25:28;11.00;99.90
38118;DHT22;23928;47.562;7.508;2023-03-08T16:27:54;11.00;99.90
38118;DHT22;23928;47.562;7.508;2023-03-08T16:30:20;11.00;99.90
38118;DHT22;23928;47.562;7.508;2023-03-08T16:32:45;10.90;99.90
38118;DHT22;23928;47.562;7.508;2023-03-08T16:35:11;10.90;99.90
38118;DHT22;23928;47.562;7.508;2023-03-08T16:37:37;10.80;99.90
38118;DHT22;23928;47.562;7.508;2023-03-08T16:40:03;10.80;99.90
38118;DHT22;23928;47.562;7.508;2023-03-08T16:42:31;10.70;99.90
38118;DHT22;23928;47.562;7.508;2023-03-08T16:44:57;10.70;99.90
38118;DHT22;23928;47.562;7.508;2023-03-08T16:47:24;10.60;99.90
38118;DHT22;23928;47.562;7.508;2023-03-08T16:49:51;10.70;99.90
38118;DHT22;23928;47.562;7.508;2023-03-08T16:52:17;10.60;99.90
38118;DHT22;23928;47.562;7.508;2023-03-08T16:54:43;10.60;99.90
38118;DHT22;23928;47.562;7.508;2023-03-08T16:57:13;10.60;99.90
38118;DHT22;23928;47.562;7.508;2023-03-08T16:59:39;10.60;99.90
38118;DHT22;23928;47.562;7.508;2023-03-08T17:02:15;10.60;99.90
38118;DHT22;23928;47.562;7.508;2023-03-08T17:04:41;10.60;99.90
38118;DHT22;23928;47.562;7.508;2023-03-08T17:07:08;10.70;99.90
38118;DHT22;23928;47.562;7.508;2023-03-08T17:09:35;10.60;99.90
38118;DHT22;23928;47.562;7.508;2023-03-08T17:12:01;10.60;99.90